createdAt,value
2022-11-01T00:05:56.101Z,1013.5
2022-11-01T00:20:52.038Z,1013.4
2022-11-01T00:35:48.012Z,1013.1
2022-11-01T00:50:44.459Z,1013.1
2022-11-01T01:05:40.847Z,1012.7
2022-11-01T01:20:37.236Z,1013.1
2022-11-01T01:35:33.114Z,1012.7
2022-11-01T01:50:29.445Z,1012.7
2022-11-01T02:05:26.031Z,1012.9
2022-11-01T02:20:22.371Z,1012.9
2022-11-01T02:35:18.756Z,1012.8
2022-11-01T02:50:15.073Z,1013.2
2022-11-01T03:05:11.004Z,1013.2
2022-11-01T03:20:07.127Z,1013.4
2022-11-01T03:35:03.264Z,1013.6
2022-11-01T03:49:59.878Z,1013.5
2022-11-01T04:04:56.330Z,1013.7
2022-11-01T04:19:52.751Z,1013.8
2022-11-01T04:34:49.218Z,1013.7
2022-11-01T04:49:46.276Z,1013.9
2022-11-01T05:04:42.415Z,1014.2
2022-11-01T05:19:38.582Z,1014.5
2022-11-01T05:34:35.090Z,1014.5
2022-11-01T05:49:31.209Z,1014.5
2022-11-01T06:04:27.246Z,1015
2022-11-01T06:19:23.134Z,1015.2
2022-11-01T06:34:19.572Z,1015.5
2022-11-01T06:49:17.918Z,1015.9
2022-11-01T07:19:08.223Z,1016.6
2022-11-01T07:34:04.084Z,1016.9
2022-11-01T07:48:59.934Z,1017.3
2022-11-01T08:03:56.434Z,1017.6
2022-11-01T08:18:52.875Z,1017.8
2022-11-01T08:48:45.442Z,1018.3
2022-11-01T09:03:41.777Z,1018.4
2022-11-01T09:18:38.608Z,1018.6
2022-11-01T09:33:34.654Z,1018.7
2022-11-01T09:48:30.751Z,1018.8
2022-11-01T10:03:26.620Z,1018.8
2022-11-01T10:18:23.245Z,1018.9
2022-11-01T10:33:19.313Z,1019
2022-11-01T10:48:15.859Z,1019
2022-11-01T11:03:12.037Z,1019
2022-11-01T11:18:08.447Z,1019
2022-11-01T11:33:04.783Z,1019.1
2022-11-01T11:48:01.191Z,1019.1
2022-11-01T12:02:57.139Z,1019.1
2022-11-01T12:17:52.876Z,1019.1
2022-11-01T12:32:49.439Z,1018.9
2022-11-01T12:47:45.324Z,1018.9
2022-11-01T13:02:41.889Z,1018.9
2022-11-01T13:32:35.203Z,1018.9
2022-11-01T13:47:31.236Z,1019
2022-11-01T14:02:27.908Z,1018.9
2022-11-01T14:17:23.830Z,1019.1
2022-11-01T14:32:19.842Z,1019.1
2022-11-01T14:47:16.263Z,1019.3
2022-11-01T15:02:12.595Z,1019.4
2022-11-01T15:17:08.966Z,1019.5
2022-11-01T15:32:04.682Z,1019.4
2022-11-01T15:47:00.903Z,1019.6
2022-11-01T16:01:58.523Z,1019.6
2022-11-01T16:16:53.211Z,1019.6
2022-11-01T16:31:49.394Z,1019.7
2022-11-01T16:46:45.729Z,1019.7
2022-11-01T17:01:41.680Z,1019.9
2022-11-01T17:16:37.832Z,1019.9
2022-11-01T17:31:33.608Z,1020
2022-11-01T17:46:29.598Z,1020.1
2022-11-01T18:01:25.578Z,1020.1
2022-11-01T18:16:21.528Z,1020.2
2022-11-01T18:31:17.611Z,1020.2
2022-11-01T18:46:28.868Z,1020.2
2022-11-01T19:01:09.756Z,1020.1
2022-11-01T19:16:05.681Z,1020.1
2022-11-01T19:31:01.401Z,1020.1
2022-11-01T19:45:57.679Z,1020.1
2022-11-01T20:00:53.662Z,1020.1
2022-11-01T20:15:49.781Z,1020.1
2022-11-01T20:30:46.117Z,1020.2
2022-11-01T20:45:41.970Z,1020.2
2022-11-01T21:00:38.399Z,1020.2
2022-11-01T21:15:34.673Z,1020.2
2022-11-01T21:30:31.061Z,1020.2
2022-11-01T21:45:26.593Z,1020.2
2022-11-01T22:00:23.414Z,1020.3
2022-11-01T22:15:19.614Z,1020.2
2022-11-01T22:30:15.884Z,1020
2022-11-01T22:45:12.420Z,1020.1
2022-11-01T23:00:08.435Z,1020
2022-11-01T23:15:04.954Z,1019.9
2022-11-01T23:30:01.325Z,1019.9
2022-11-01T23:44:57.897Z,1019.8
2022-11-01T23:59:54.039Z,1019.7
